Time;durP1;ratioP1;P1;durP2;ratioP2;P2;SDS_P1;SDS_P2;PMS_P1;PMS_P2;Temp;Humidity;BMP_temperature;BMP_pressure;BME280_temperature;BME280_humidity;BME280_pressure;Samples;Min_cycle;Max_cycle;Signal;HPM_P1;HPM_P2
2022/01/13 00:00:14;;;;;;;9.95;5.60;;;;;;;-14.10;62.88;100180.25;5046728;28;20325;-56
2022/01/13 00:02:39;;;;;;;11.73;6.15;;;;;;;-14.10;62.78;100168.66;5047229;28;20071;-57
2022/01/13 00:05:06;;;;;;;9.63;5.20;;;;;;;-14.02;63.30;100156.88;5050471;28;20021;-56
2022/01/13 00:07:31;;;;;;;12.73;5.95;;;;;;;-14.06;63.33;100162.34;5046836;28;20034;-56
2022/01/13 00:09:57;;;;;;;10.48;6.30;;;;;;;-14.23;64.07;100154.31;5045906;28;20036;-55
2022/01/13 00:12:27;;;;;;;9.13;5.30;;;;;;;-14.16;63.69;100160.69;5050569;28;20025;-56
2022/01/13 00:23:39;;;;;;;10.38;5.82;;;;;;;-14.45;64.95;100150.75;5031615;28;20080;-55
2022/01/13 00:25:36;;;;;;;9.88;5.00;;;;;;;-14.34;64.77;100151.69;5053793;28;20028;-55
2022/01/13 00:28:13;;;;;;;12.13;5.55;;;;;;;-14.23;65.22;100156.81;5050784;28;20267;-55
2022/01/13 00:30:39;;;;;;;9.55;5.65;;;;;;;-14.31;64.12;100142.84;5036397;28;20025;-54
2022/01/13 00:33:05;;;;;;;13.23;5.82;;;;;;;-14.24;62.92;100130.19;5041474;28;20021;-54
2022/01/13 00:35:30;;;;;;;10.57;5.78;;;;;;;-14.28;64.71;100120.75;5049723;28;20033;-55
2022/01/13 00:37:56;;;;;;;10.90;5.38;;;;;;;-14.22;63.57;100117.91;5036637;28;20278;-54
2022/01/13 00:40:21;;;;;;;10.23;5.85;;;;;;;-14.15;63.26;100111.81;5058605;28;20056;-54
2022/01/13 00:42:47;;;;;;;9.65;5.30;;;;;;;-14.16;65.17;100108.47;5054319;28;20035;-55
2022/01/13 00:45:14;;;;;;;10.88;5.28;;;;;;;-14.15;64.07;100106.84;5044396;28;20033;-56
2022/01/13 00:47:41;;;;;;;11.05;5.65;;;;;;;-14.19;63.48;100085.81;5058639;28;20025;-55
2022/01/13 00:50:07;;;;;;;9.40;5.43;;;;;;;-14.32;64.38;100103.84;5045157;28;20033;-56
2022/01/13 00:52:33;;;;;;;9.98;5.75;;;;;;;-14.47;64.15;100086.00;5046885;28;20033;-55
2022/01/13 00:55:03;;;;;;;9.55;5.38;;;;;;;-14.25;65.09;100080.31;5053798;28;20028;-56
2022/01/13 00:57:31;;;;;;;8.82;5.43;;;;;;;-14.29;62.68;100061.81;5050135;28;20052;-56
2022/01/13 00:59:57;;;;;;;12.15;5.97;;;;;;;-14.32;63.21;100061.56;5048525;28;20071;-57
2022/01/13 01:02:22;;;;;;;10.18;5.82;;;;;;;-14.28;64.63;100050.22;5045501;28;20033;-54
2022/01/13 01:04:48;;;;;;;9.50;5.38;;;;;;;-14.20;65.58;100043.41;5046174;28;20068;-55
2022/01/13 01:07:14;;;;;;;10.43;5.65;;;;;;;-14.15;64.36;100048.03;5051502;28;20086;-55
2022/01/13 01:09:47;;;;;;;9.65;5.15;;;;;;;-14.28;63.23;100042.78;5048079;28;20156;-55
2022/01/13 01:12:13;;;;;;;10.63;5.22;;;;;;;-14.23;63.57;100027.47;5059077;28;20033;-55
2022/01/13 01:14:45;;;;;;;9.48;5.47;;;;;;;-14.11;65.08;100031.72;5052350;28;20302;-55
2022/01/13 01:17:14;;;;;;;11.98;6.05;;;;;;;-14.07;64.41;100031.22;5047632;28;20271;-55
2022/01/13 01:19:43;;;;;;;9.55;5.18;;;;;;;-14.01;65.09;100030.84;5057832;28;20090;-55
2022/01/13 01:25:06;;;;;;;9.43;5.85;;;;;;;-13.91;65.08;100026.75;5045048;28;20048;-55
2022/01/13 01:27:39;;;;;;;;;;;;;;;-13.88;65.17;100023.63;5056336;28;20045;-55
2022/01/13 01:30:27;;;;;;;9.30;5.13;;;;;;;-13.94;64.95;100023.13;5042485;28;19916;-55
2022/01/13 01:32:52;;;;;;;13.57;6.18;;;;;;;-13.92;65.24;100006.69;5042869;28;20040;-54
2022/01/13 01:35:19;;;;;;;12.90;6.03;;;;;;;-14.04;62.75;99991.66;5038471;28;20029;-54
2022/01/13 01:37:45;;;;;;;10.43;5.60;;;;;;;-13.98;65.06;99996.25;5050430;28;20106;-55
2022/01/13 01:40:13;;;;;;;8.88;5.50;;;;;;;-13.98;63.51;99987.16;5045463;28;20097;-56
2022/01/13 01:42:38;;;;;;;12.90;5.60;;;;;;;-14.18;64.49;99980.59;5044748;28;20043;-57
2022/01/13 01:45:07;;;;;;;12.93;6.05;;;;;;;-14.78;65.34;99904.53;5043714;28;20021;-56
2022/01/13 01:47:33;;;;;;;11.68;6.22;;;;;;;-14.24;65.77;99980.09;5049213;28;20108;-57
2022/01/13 01:50:10;;;;;;;8.55;5.00;;;;;;;-14.65;65.77;99898.09;5045238;28;20631;-57
2022/01/13 01:52:36;;;;;;;11.85;5.68;;;;;;;-14.23;64.93;99966.94;5042349;28;20263;-57
2022/01/13 01:55:03;;;;;;;10.93;5.32;;;;;;;-14.10;65.92;99983.72;5050184;28;20108;-57
2022/01/13 01:57:29;;;;;;;12.55;6.82;;;;;;;-14.15;65.16;99980.88;5044391;28;20037;-57
2022/01/13 01:59:55;;;;;;;11.13;6.13;;;;;;;-14.08;65.65;99970.66;5044554;28;20033;-56
2022/01/13 02:02:22;;;;;;;12.82;6.18;;;;;;;-14.11;64.54;99977.84;5046351;28;20083;-56
2022/01/13 02:04:48;;;;;;;10.88;5.95;;;;;;;-14.02;65.14;99969.38;5044374;28;20033;-56
2022/01/13 02:07:14;;;;;;;11.43;5.95;;;;;;;-14.17;63.73;99984.81;5048029;28;20048;-59
2022/01/13 02:09:43;;;;;;;10.82;6.15;;;;;;;-14.17;63.37;99964.94;5051552;28;20036;-55
2022/01/13 02:12:14;;;;;;;13.38;6.80;;;;;;;-14.10;64.21;99983.72;5046501;28;20025;-56
2022/01/13 02:14:57;;;;;;;9.80;6.00;;;;;;;-14.17;63.24;99959.94;5043210;28;20032;-56
2022/01/13 02:17:28;;;;;;;9.93;5.65;;;;;;;-14.12;64.76;99950.38;5037138;28;20080;-56
2022/01/13 02:19:56;;;;;;;9.38;5.38;;;;;;;-14.37;64.24;99932.63;5043586;28;20072;-55
2022/01/13 02:22:22;;;;;;;11.43;5.75;;;;;;;-14.15;64.87;99965.94;5043392;28;20031;-55
2022/01/13 02:24:48;;;;;;;15.65;5.97;;;;;;;-14.10;65.21;99967.16;5054090;28;20057;-56
2022/01/13 02:27:15;;;;;;;11.50;6.10;;;;;;;-14.04;64.47;99953.50;5043750;28;20325;-56
2022/01/13 02:29:41;;;;;;;9.50;5.80;;;;;;;-14.02;64.79;99947.00;5054780;28;20051;-56
2022/01/13 02:32:08;;;;;;;11.73;6.53;;;;;;;-14.53;63.79;99886.63;5056480;28;20021;-55
2022/01/13 02:34:34;;;;;;;15.77;7.15;;;;;;;-14.10;63.47;99972.13;5044207;28;20032;-55
2022/01/13 02:37:02;;;;;;;12.65;6.78;;;;;;;-14.25;63.94;99965.91;5048403;28;20190;-56
2022/01/13 02:39:28;;;;;;;15.35;6.88;;;;;;;-14.18;63.74;99958.19;5052157;28;20060;-55
2022/01/13 02:41:55;;;;;;;17.65;7.47;;;;;;;-14.15;63.65;99958.47;5044140;28;20029;-55
2022/01/13 02:44:22;;;;;;;24.83;8.32;;;;;;;-14.16;63.58;99966.69;5045332;28;20061;-56
2022/01/13 02:49:20;;;;;;;20.75;8.18;;;;;;;-14.60;64.27;99894.34;5052547;28;20037;-56
2022/01/13 02:51:47;;;;;;;;;;;;;;;-14.18;64.88;99969.78;5038805;28;20029;-55
2022/01/13 02:54:13;;;;;;;20.65;7.93;;;;;;;-14.21;64.90;99970.41;5056214;28;19943;-55
2022/01/13 02:56:40;;;;;;;20.00;7.68;;;;;;;-14.16;64.22;99974.13;5051962;28;20067;-56
2022/01/13 02:59:07;;;;;;;20.05;8.30;;;;;;;-14.16;64.23;99970.75;5046220;28;20025;-56
2022/01/13 03:01:34;;;;;;;21.95;8.82;;;;;;;-14.21;63.91;99954.63;5043209;28;20047;-57
2022/01/13 03:04:04;;;;;;;18.35;8.05;;;;;;;-14.18;64.76;99942.41;5047686;28;20305;-56
2022/01/13 03:06:38;;;;;;;18.92;7.80;;;;;;;-14.26;65.92;99916.94;5045524;28;20025;-55
2022/01/13 03:09:09;;;;;;;17.58;7.35;;;;;;;-14.14;65.83;99947.75;5042213;28;20333;-56
2022/01/13 03:11:38;;;;;;;17.58;8.15;;;;;;;-14.12;65.72;99910.56;5043286;28;20033;-56
2022/01/13 03:14:06;;;;;;;17.60;7.53;;;;;;;-14.20;65.31;99885.09;5049578;28;20144;-56
2022/01/13 03:16:32;;;;;;;16.60;6.97;;;;;;;-14.44;65.67;99884.00;5042075;28;20310;-60
2022/01/13 03:18:57;;;;;;;15.65;7.40;;;;;;;-14.51;65.39;99905.00;5054868;28;20032;-56
2022/01/13 03:21:23;;;;;;;19.42;8.98;;;;;;;-14.35;65.17;99911.22;5050602;28;20349;-56
2022/01/13 03:23:50;;;;;;;16.88;7.53;;;;;;;-14.43;66.79;99888.25;5034660;28;20030;-56
2022/01/13 03:26:16;;;;;;;14.73;7.15;;;;;;;-14.35;65.85;99898.78;5081087;28;20179;-56
2022/01/13 03:28:52;;;;;;;14.63;7.38;;;;;;;-14.38;66.36;99896.06;5045430;28;20030;-56
2022/01/13 03:31:24;;;;;;;19.02;8.20;;;;;;;-14.48;66.46;99882.88;5044349;28;20021;-56
2022/01/13 03:33:51;;;;;;;12.55;7.53;;;;;;;-14.49;64.84;99868.72;5042848;28;20328;-54
2022/01/13 03:36:17;;;;;;;17.17;7.15;;;;;;;-14.38;66.36;99903.53;5046364;28;20044;-55
2022/01/13 03:38:44;;;;;;;13.30;7.00;;;;;;;-14.36;65.50;99870.56;5045775;28;20042;-55
2022/01/13 03:41:10;;;;;;;14.20;7.22;;;;;;;-14.37;67.65;99863.00;5042147;28;20041;-55
2022/01/13 03:43:37;;;;;;;14.15;6.60;;;;;;;-14.29;66.15;99838.00;5041763;28;20021;-56
2022/01/13 03:46:04;;;;;;;14.02;7.00;;;;;;;-14.16;65.47;99832.38;5049124;28;20052;-56
2022/01/13 03:48:29;;;;;;;13.57;7.05;;;;;;;-14.14;66.65;99818.41;5043433;28;20048;-56
2022/01/13 03:50:55;;;;;;;14.80;7.00;;;;;;;-14.49;65.44;99761.84;5042785;28;20030;-56
2022/01/13 03:53:26;;;;;;;16.10;7.20;;;;;;;-14.10;66.84;99805.47;5043796;28;20026;-56
2022/01/13 03:56:16;;;;;;;11.88;6.95;;;;;;;-14.02;65.33;99800.22;5037868;28;20037;-55
2022/01/13 03:59:07;;;;;;;14.57;6.85;;;;;;;-13.99;66.99;99806.31;5043041;28;20281;-55
2022/01/13 04:01:57;;;;;;;13.73;7.28;;;;;;;-13.98;65.78;99814.63;5045354;28;20031;-56
2022/01/13 04:04:22;;;;;;;12.20;6.82;;;;;;;-14.09;65.53;99796.41;5042026;28;20040;-56
2022/01/13 04:06:48;;;;;;;12.23;6.72;;;;;;;-13.98;67.38;99799.72;5042792;28;20029;-55
2022/01/13 04:09:33;;;;;;;17.73;7.85;;;;;;;-13.96;66.67;99796.59;5047630;28;20037;-56
2022/01/13 04:12:05;;;;;;;16.42;7.35;;;;;;;-13.99;65.85;99780.53;5040856;28;20032;-56
2022/01/13 04:14:42;;;;;;;14.48;7.38;;;;;;;-13.93;65.37;99774.44;5043263;28;20033;-55
2022/01/13 04:17:09;;;;;;;12.85;7.72;;;;;;;-13.80;65.48;99785.34;5040935;28;20070;-55
2022/01/13 04:19:35;;;;;;;13.38;7.78;;;;;;;-13.95;65.07;99755.16;5045932;28;20052;-55
2022/01/13 04:22:03;;;;;;;15.23;7.90;;;;;;;-14.31;66.10;99692.75;5046236;28;20234;-55
2022/01/13 04:24:28;;;;;;;17.63;8.70;;;;;;;-13.92;65.09;99760.34;5045976;28;20092;-56
2022/01/13 04:26:55;;;;;;;15.43;8.27;;;;;;;-13.78;65.75;99753.94;5050319;28;20040;-55
2022/01/13 04:29:30;;;;;;;15.60;8.52;;;;;;;-13.80;67.01;99753.84;5044853;28;20253;-55
2022/01/13 04:31:56;;;;;;;18.98;9.10;;;;;;;-13.79;65.36;99733.19;5055671;28;20049;-56
2022/01/13 04:34:21;;;;;;;17.30;9.10;;;;;;;-13.80;66.18;99736.41;5042393;28;20041;-55
2022/01/13 04:36:48;;;;;;;15.75;9.25;;;;;;;-13.74;66.42;99739.34;5044994;28;20092;-55
2022/01/13 04:39:14;;;;;;;18.58;9.30;;;;;;;-14.10;66.97;99693.53;5045683;28;20368;-56
2022/01/13 04:41:43;;;;;;;20.88;10.30;;;;;;;-13.76;67.10;99730.91;5044255;28;20156;-55
2022/01/13 04:44:16;;;;;;;20.40;10.05;;;;;;;-14.34;66.56;99647.78;5036809;28;20229;-56
2022/01/13 04:46:42;;;;;;;17.50;10.05;;;;;;;-13.77;67.19;99716.72;5049916;28;20025;-55
2022/01/13 04:49:08;;;;;;;20.30;9.85;;;;;;;-13.79;66.53;99733.19;5048787;28;20068;-55
2022/01/13 04:51:36;;;;;;;22.73;10.05;;;;;;;-13.77;67.61;99761.53;5033014;28;20100;-56
2022/01/13 04:54:02;;;;;;;18.58;9.48;;;;;;;-13.75;66.62;99737.66;5057032;28;20041;-55
2022/01/13 04:59:16;;;;;;;17.85;8.68;;;;;;;-13.69;66.17;99723.91;5043338;28;20287;-57
2022/01/13 05:01:42;;;;;;;14.50;8.43;;;;;;;-13.67;66.04;99712.47;5059107;28;20032;-57
2022/01/13 05:04:08;;;;;;;17.30;8.43;;;;;;;-13.99;68.23;99714.25;5045230;28;20025;-58
2022/01/13 05:06:34;;;;;;;17.20;9.23;;;;;;;-14.04;68.20;99704.72;5047597;28;20033;-57
2022/01/13 05:09:00;;;;;;;17.00;8.38;;;;;;;-14.07;69.13;99690.41;5056097;28;20041;-58
2022/01/13 05:11:26;;;;;;;16.23;8.55;;;;;;;-13.94;68.68;99692.22;5050908;28;20275;-57
2022/01/13 05:13:51;;;;;;;16.92;8.77;;;;;;;-14.02;69.10;99669.25;5046540;28;20036;-57
2022/01/13 05:16:23;;;;;;;16.25;7.55;;;;;;;-13.84;68.56;99693.78;5048024;28;20214;-58
2022/01/13 05:18:57;;;;;;;14.63;8.40;;;;;;;-13.83;67.86;99671.50;5055503;28;20078;-57
2022/01/13 05:23:49;;;;;;;16.23;8.30;;;;;;;-13.75;68.17;99662.09;5044349;28;20029;-58
2022/01/13 05:26:15;;;;;;;17.45;8.98;;;;;;;-13.92;68.91;99666.69;5056682;28;20032;-58
2022/01/13 05:28:41;;;;;;;16.58;8.32;;;;;;;-14.06;70.25;99652.34;5051815;28;20029;-57
2022/01/13 05:31:10;;;;;;;17.67;8.90;;;;;;;-14.08;69.66;99646.38;5044037;28;20053;-58
2022/01/13 05:33:36;;;;;;;16.73;7.47;;;;;;;-13.95;69.18;99641.59;5048195;28;20040;-56
2022/01/13 05:36:02;;;;;;;16.73;8.25;;;;;;;-13.99;69.00;99631.28;5048162;28;20029;-57
2022/01/13 05:38:27;;;;;;;17.10;7.93;;;;;;;-14.03;69.29;99636.81;5044458;28;20025;-59
2022/01/13 05:40:53;;;;;;;13.52;8.43;;;;;;;-14.06;69.27;99613.41;5044455;28;20238;-58
2022/01/13 05:43:20;;;;;;;18.02;8.20;;;;;;;-13.96;68.88;99605.00;5049008;28;20312;-57
2022/01/13 05:45:46;;;;;;;15.95;8.25;;;;;;;-14.10;70.06;99611.44;5032994;28;20029;-58
2022/01/13 05:48:11;;;;;;;15.45;8.55;;;;;;;-14.13;71.00;99581.38;5030718;28;20100;-57
2022/01/13 05:50:37;;;;;;;16.02;8.18;;;;;;;-14.30;71.37;99580.13;5044683;28;20040;-58
2022/01/13 05:53:04;;;;;;;16.33;8.35;;;;;;;-14.15;70.62;99585.38;5043429;28;20025;-59
2022/01/13 05:55:30;;;;;;;17.25;8.85;;;;;;;-14.06;70.30;99593.50;5044359;28;20036;-58
2022/01/13 05:57:55;;;;;;;14.45;8.02;;;;;;;-13.97;69.32;99594.94;5055181;28;20037;-59
2022/01/13 06:00:22;;;;;;;13.80;7.53;;;;;;;-14.04;69.66;99601.09;5049519;28;20029;-59
2022/01/13 06:02:48;;;;;;;13.75;7.82;;;;;;;-14.00;70.46;99594.72;5042372;28;20314;-58
2022/01/13 06:05:14;;;;;;;15.95;9.65;;;;;;;-14.02;69.28;99587.16;5051018;28;20052;-58
2022/01/13 06:07:40;;;;;;;18.63;8.77;;;;;;;-13.94;69.43;99570.28;5050409;28;20044;-58
2022/01/13 06:10:09;;;;;;;16.48;8.55;;;;;;;-13.91;68.78;99602.84;5031753;28;20026;-58
2022/01/13 06:12:37;;;;;;;17.83;8.82;;;;;;;-14.06;69.43;99588.53;5043031;28;20049;-58
2022/01/13 06:15:05;;;;;;;17.65;9.30;;;;;;;-13.97;69.30;99593.31;5042690;28;20242;-58
2022/01/13 06:17:31;;;;;;;16.70;8.85;;;;;;;-13.90;69.82;99579.72;5030962;28;20033;-61
2022/01/13 06:19:58;;;;;;;16.52;8.05;;;;;;;-13.94;69.37;99572.78;5058051;28;20035;-58
2022/01/13 06:22:24;;;;;;;18.27;8.55;;;;;;;-13.89;69.90;99572.38;5053381;28;20314;-57
2022/01/13 06:24:50;;;;;;;15.15;7.97;;;;;;;-14.10;69.19;99569.16;5047674;28;20029;-58
2022/01/13 06:27:15;;;;;;;19.48;9.25;;;;;;;-14.07;70.78;99547.00;5054348;28;20278;-57
2022/01/13 06:29:41;;;;;;;18.23;9.20;;;;;;;-13.92;69.91;99546.38;5048110;28;20033;-58
2022/01/13 06:32:07;;;;;;;15.57;8.63;;;;;;;-13.87;68.82;99556.69;5047104;28;20036;-58
2022/01/13 06:34:33;;;;;;;20.92;8.90;;;;;;;-13.86;69.56;99536.91;5038409;28;20131;-59
2022/01/13 06:36:58;;;;;;;19.48;8.43;;;;;;;-14.34;69.15;99525.94;5045482;28;20040;-58
2022/01/13 06:39:24;;;;;;;23.05;10.07;;;;;;;-14.44;71.01;99533.47;5049792;28;20033;-58
2022/01/13 06:41:49;;;;;;;18.20;9.25;;;;;;;-14.22;70.79;99516.06;5033284;28;20028;-58
2022/01/13 06:44:15;;;;;;;17.27;8.98;;;;;;;-14.23;70.75;99511.81;5043291;28;20021;-58
2022/01/13 06:46:40;;;;;;;19.40;9.52;;;;;;;-14.37;70.53;99502.47;5050703;28;20079;-61
2022/01/13 06:49:06;;;;;;;19.80;9.18;;;;;;;-14.37;71.51;99495.88;5046387;28;20037;-58
2022/01/13 06:51:32;;;;;;;16.25;8.98;;;;;;;-14.17;70.62;99487.38;5043238;28;20029;-61
2022/01/13 06:53:58;;;;;;;20.08;9.15;;;;;;;-14.04;69.86;99488.28;5051285;28;20044;-58
2022/01/13 06:56:24;;;;;;;17.90;9.40;;;;;;;-13.91;70.40;99488.41;5037540;28;20037;-59
2022/01/13 06:58:51;;;;;;;18.92;9.88;;;;;;;-13.87;69.03;99482.91;5047248;28;20052;-58
2022/01/13 07:01:18;;;;;;;21.30;10.95;;;;;;;-14.02;69.19;99486.75;5054345;28;20112;-58
2022/01/13 07:03:43;;;;;;;20.45;10.23;;;;;;;-13.87;70.40;99496.97;5048792;28;20330;-59
2022/01/13 07:06:09;;;;;;;22.55;10.68;;;;;;;-14.09;71.37;99483.00;5044393;28;20025;-57
2022/01/13 07:08:35;;;;;;;22.70;10.98;;;;;;;-13.95;70.31;99461.56;5048022;28;20215;-59
2022/01/13 07:11:03;;;;;;;23.95;11.15;;;;;;;-13.92;69.92;99456.81;5042040;28;20349;-60
2022/01/13 07:13:29;;;;;;;21.13;11.00;;;;;;;-13.87;70.04;99454.69;5044676;28;20028;-59
2022/01/13 07:15:55;;;;;;;23.33;10.40;;;;;;;-13.85;71.60;99446.56;5040920;28;20033;-58
2022/01/13 07:18:21;;;;;;;20.45;10.52;;;;;;;-13.95;71.50;99442.56;5046136;28;20183;-58
2022/01/13 07:20:48;;;;;;;17.20;9.50;;;;;;;-13.94;70.76;99449.25;5036619;28;20037;-58
2022/01/13 07:23:14;;;;;;;17.95;9.55;;;;;;;-13.80;70.74;99427.81;5046471;28;20237;-59
2022/01/13 07:25:39;;;;;;;20.75;10.48;;;;;;;-13.79;71.45;99419.63;5052355;28;20067;-59
2022/01/13 07:28:05;;;;;;;19.92;10.35;;;;;;;-13.81;73.09;99416.13;5047311;28;20303;-58
2022/01/13 07:30:32;;;;;;;20.45;10.32;;;;;;;-13.83;72.74;99377.84;5041347;28;20070;-58
2022/01/13 07:32:58;;;;;;;21.23;10.05;;;;;;;-13.68;73.28;99388.00;5049438;28;20021;-59
2022/01/13 07:35:24;;;;;;;19.27;10.85;;;;;;;-13.47;72.90;99388.59;5045666;28;20405;-58
2022/01/13 07:37:50;;;;;;;24.85;11.68;;;;;;;-13.39;72.47;99382.53;5042970;28;20033;-57
2022/01/13 07:40:17;;;;;;;19.98;10.82;;;;;;;-13.17;72.63;99393.91;5053396;28;20348;-58
2022/01/13 07:42:44;;;;;;;24.05;12.23;;;;;;;-13.09;70.64;99412.75;5038263;28;20025;-58
2022/01/13 07:45:12;;;;;;;25.98;12.77;;;;;;;-13.01;70.61;99410.75;5042915;28;20025;-58
2022/01/13 07:47:38;;;;;;;25.48;12.27;;;;;;;-12.77;70.79;99396.56;5042176;28;20065;-57
2022/01/13 07:50:09;;;;;;;26.88;12.68;;;;;;;-13.14;70.08;99308.56;5045803;28;20218;-57
2022/01/13 07:52:35;;;;;;;23.02;11.68;;;;;;;-12.82;69.38;99365.50;5038252;28;20947;-58
2022/01/13 07:55:01;;;;;;;25.27;11.20;;;;;;;-13.26;69.65;99355.94;5031733;28;20044;-58
2022/01/13 07:57:26;;;;;;;20.92;10.98;;;;;;;-13.12;70.57;99346.88;5056753;28;20029;-57
2022/01/13 07:59:52;;;;;;;21.75;10.68;;;;;;;-12.91;70.32;99355.81;5040152;28;20034;-58
2022/01/13 08:02:19;;;;;;;27.33;12.80;;;;;;;-12.82;70.67;99345.56;5046655;28;20029;-57
2022/01/13 08:04:44;;;;;;;24.13;12.00;;;;;;;-12.75;69.71;99355.16;5045952;28;20152;-58
2022/01/13 08:07:10;;;;;;;24.65;12.00;;;;;;;-12.54;69.70;99337.38;5044922;28;20029;-58
2022/01/13 08:09:35;;;;;;;24.13;11.43;;;;;;;-12.78;68.75;99329.16;5049235;28;20032;-58
2022/01/13 08:12:01;;;;;;;22.92;12.15;;;;;;;-12.85;68.80;99306.34;5059583;28;20383;-59
2022/01/13 08:14:26;;;;;;;25.00;12.23;;;;;;;-12.96;70.19;99299.81;5049948;28;20389;-58
2022/01/13 08:16:56;;;;;;;25.85;12.40;;;;;;;-12.79;69.00;99295.06;5047760;28;20106;-59
2022/01/13 08:22:06;;;;;;;21.73;11.57;;;;;;;-12.94;70.21;99265.00;5046203;28;20040;-59
2022/01/13 08:24:31;;;;;;;25.42;12.70;;;;;;;-12.75;69.49;99264.53;5048138;28;20088;-58
2022/01/13 08:26:57;;;;;;;25.67;13.07;;;;;;;-12.94;68.70;99247.56;5060238;28;20033;-59
2022/01/13 08:29:23;;;;;;;21.83;12.07;;;;;;;-12.57;69.08;99230.81;5055105;28;20318;-58
2022/01/13 08:31:48;;;;;;;26.90;12.95;;;;;;;-12.19;68.42;99219.00;5044056;28;20045;-58
2022/01/13 08:34:16;;;;;;;24.85;12.65;;;;;;;-12.57;66.78;99205.03;5044733;28;20349;-58
2022/01/13 08:36:42;;;;;;;26.73;13.27;;;;;;;-12.63;67.91;99182.22;5044365;28;20065;-58
2022/01/13 08:39:08;;;;;;;23.35;12.95;;;;;;;-12.51;68.25;99180.44;5048274;28;20025;-60
2022/01/13 08:41:34;;;;;;;27.52;12.32;;;;;;;-12.09;67.87;99171.34;5050331;28;20333;-59
2022/01/13 08:43:59;;;;;;;24.90;12.45;;;;;;;-12.11;66.75;99172.03;5057099;28;20025;-58
2022/01/13 08:46:26;;;;;;;24.40;12.10;;;;;;;-12.21;66.86;99153.16;5049431;28;20057;-58
2022/01/13 08:48:54;;;;;;;20.17;11.32;;;;;;;-12.24;66.50;99138.00;5043875;28;20400;-59
2022/01/13 08:51:20;;;;;;;21.10;10.80;;;;;;;-12.10;67.07;99154.66;5058720;28;20328;-59
2022/01/13 08:53:46;;;;;;;18.40;10.40;;;;;;;-12.01;66.91;99161.84;5045403;28;20038;-58
2022/01/13 08:56:13;;;;;;;24.23;10.70;;;;;;;-11.93;65.67;99142.31;5047357;28;20087;-58
2022/01/13 08:58:39;;;;;;;21.75;10.75;;;;;;;-12.09;65.24;99136.41;5057271;28;20067;-59
2022/01/13 09:01:07;;;;;;;19.10;9.50;;;;;;;-12.11;66.18;99140.47;5044606;28;20053;-59
2022/01/13 09:03:33;;;;;;;20.40;9.65;;;;;;;-11.86;65.92;99137.72;5046684;28;20078;-59
2022/01/13 09:05:59;;;;;;;16.63;8.90;;;;;;;-12.01;65.78;99120.28;5042465;28;20033;-58
2022/01/13 09:08:24;;;;;;;19.00;10.30;;;;;;;-12.20;66.03;99112.47;5043572;28;20055;-59
2022/01/13 09:10:51;;;;;;;19.38;10.20;;;;;;;-12.22;66.42;99099.06;5046727;28;20025;-58
2022/01/13 09:13:17;;;;;;;17.10;9.23;;;;;;;-12.17;66.92;99078.59;5030266;28;20095;-58
2022/01/13 09:15:49;;;;;;;20.90;9.95;;;;;;;-12.36;65.54;98998.47;5044373;28;20122;-58
2022/01/13 09:18:29;;;;;;;21.48;9.23;;;;;;;-11.98;65.98;99045.56;5052106;28;20029;-58
2022/01/13 09:20:55;;;;;;;22.45;9.85;;;;;;;-12.59;64.71;99047.84;5044336;28;20097;-60
2022/01/13 09:23:21;;;;;;;22.73;11.07;;;;;;;-12.64;66.33;99058.31;5056974;28;20038;-58
2022/01/13 09:25:46;;;;;;;19.10;10.27;;;;;;;-12.32;66.95;99058.59;5051097;28;20211;-58
2022/01/13 09:28:13;;;;;;;17.38;9.77;;;;;;;-12.07;65.36;99066.63;5045018;28;20036;-58
2022/01/13 09:30:39;;;;;;;18.02;8.43;;;;;;;-11.86;66.33;99069.47;5043524;28;20217;-58
2022/01/13 09:33:05;;;;;;;20.92;8.27;;;;;;;-12.07;66.06;99079.13;5045550;28;20033;-59
2022/01/13 09:35:32;;;;;;;13.60;8.10;;;;;;;-12.09;66.19;99073.19;5044755;28;20034;-58
2022/01/13 09:37:57;;;;;;;16.45;7.90;;;;;;;-12.19;65.43;99041.84;5047314;28;20035;-58
2022/01/13 09:40:23;;;;;;;14.98;8.18;;;;;;;-11.93;65.62;99028.31;5052462;28;20592;-58
2022/01/13 09:42:50;;;;;;;18.33;8.52;;;;;;;-11.72;66.19;99021.19;5043953;28;20031;-57
2022/01/13 09:45:16;;;;;;;16.00;8.55;;;;;;;-12.12;65.44;98990.69;5028000;28;20048;-58
2022/01/13 09:47:43;;;;;;;15.57;8.70;;;;;;;-11.70;65.87;99017.16;5044423;28;20033;-58
2022/01/13 09:50:13;;;;;;;13.77;8.02;;;;;;;-12.15;64.98;98941.47;5049213;28;20061;-58
2022/01/13 09:52:40;;;;;;;14.27;7.38;;;;;;;-11.72;66.04;99000.34;5043796;28;20036;-58
2022/01/13 09:55:07;;;;;;;13.38;7.60;;;;;;;-11.74;64.88;98984.41;5054477;28;20214;-58
2022/01/13 09:57:33;;;;;;;13.65;7.45;;;;;;;-11.63;65.17;98974.25;5048688;28;20101;-58
2022/01/13 10:00:00;;;;;;;14.48;7.15;;;;;;;-11.58;64.39;98961.16;5044239;28;20029;-57
2022/01/13 10:02:26;;;;;;;16.15;7.85;;;;;;;-11.49;64.60;98952.50;5048059;28;20036;-57
2022/01/13 10:04:54;;;;;;;16.33;7.57;;;;;;;-11.54;64.24;98938.06;5043875;28;20029;-58
2022/01/13 10:07:38;;;;;;;11.90;6.55;;;;;;;-12.10;64.09;98850.22;5043466;28;20372;-58
2022/01/13 10:10:08;;;;;;;15.35;7.60;;;;;;;-11.91;64.37;98857.06;5047133;28;20233;-59
2022/01/13 10:12:37;;;;;;;15.68;7.13;;;;;;;-11.40;63.17;98927.19;5043440;28;20029;-58
2022/01/13 10:17:48;;;;;;;15.95;6.60;;;;;;;-11.47;62.95;98893.53;5057837;28;20037;-58
2022/01/13 10:20:16;;;;;;;14.18;6.78;;;;;;;-11.83;63.85;98800.94;5051496;28;20041;-58
2022/01/13 10:22:42;;;;;;;13.98;6.68;;;;;;;-11.39;63.09;98855.59;5040218;28;20037;-57
2022/01/13 10:25:27;;;;;;;12.10;6.70;;;;;;;-11.72;62.64;98766.50;5042668;28;20037;-58
2022/01/13 10:27:53;;;;;;;13.90;7.05;;;;;;;-11.23;63.33;98819.75;5041455;28;20052;-60
2022/01/13 10:30:22;;;;;;;14.57;6.75;;;;;;;-11.39;62.38;98810.63;5042619;28;20036;-57
2022/01/13 10:32:48;;;;;;;14.82;6.90;;;;;;;-11.28;63.85;98789.53;5042501;28;20211;-57
2022/01/13 10:35:24;;;;;;;15.40;6.68;;;;;;;-11.04;63.86;98794.91;5040651;28;20025;-58
2022/01/13 10:37:54;;;;;;;13.07;6.30;;;;;;;-11.47;62.95;98740.28;5052878;28;20211;-58
2022/01/13 10:40:26;;;;;;;12.32;6.32;;;;;;;-11.08;62.27;98805.53;5034771;28;20083;-58
2022/01/13 10:45:30;;;;;;;10.95;6.28;;;;;;;-11.51;62.60;98691.84;5044237;28;20218;-58
2022/01/13 10:48:00;;;;;;;12.05;6.18;;;;;;;-11.08;62.68;98748.06;5040252;28;20108;-58
2022/01/13 10:50:29;;;;;;;13.35;5.95;;;;;;;-11.14;63.38;98717.78;5037348;28;20041;-58
2022/01/13 10:53:02;;;;;;;9.35;6.10;;;;;;;-10.98;62.71;98714.38;5036489;28;20029;-58
2022/01/13 10:55:29;;;;;;;13.10;5.07;;;;;;;-10.94;62.22;98696.22;5040935;28;20053;-58
2022/01/13 10:57:54;;;;;;;10.77;5.95;;;;;;;-10.97;63.41;98676.94;5038495;28;20218;-58
2022/01/13 11:00:23;;;;;;;9.95;5.10;;;;;;;-10.97;63.00;98698.59;5040488;28;20029;-58
2022/01/13 11:03:15;;;;;;;9.60;5.47;;;;;;;-10.79;63.35;98656.06;5038395;28;20058;-59
2022/01/13 11:05:47;;;;;;;9.88;5.45;;;;;;;-10.73;63.34;98648.00;5038064;28;20044;-57
2022/01/13 11:08:21;;;;;;;13.77;5.82;;;;;;;-10.95;67.82;98605.38;5036832;28;20131;-57
2022/01/13 11:10:49;;;;;;;12.63;5.80;;;;;;;-10.71;69.48;98637.28;5039271;28;20211;-58
2022/01/13 11:13:20;;;;;;;9.60;4.75;;;;;;;-10.86;68.62;98599.91;5036217;28;20041;-58
2022/01/13 11:15:50;;;;;;;9.23;5.65;;;;;;;-10.96;70.48;98593.66;5045267;28;20053;-58
2022/01/13 11:18:17;;;;;;;9.40;5.15;;;;;;;-11.00;68.43;98530.94;5046885;28;20057;-57
2022/01/13 11:20:43;;;;;;;11.32;4.93;;;;;;;-10.70;69.22;98569.00;5044274;28;20379;-56
2022/01/13 11:23:09;;;;;;;11.55;5.40;;;;;;;-10.72;68.11;98573.03;5042382;28;20084;-58
2022/01/13 11:25:34;;;;;;;11.52;5.63;;;;;;;-10.74;70.06;98567.13;5046089;28;20095;-57
2022/01/13 11:28:00;;;;;;;10.20;5.57;;;;;;;-10.71;70.19;98528.91;5041259;28;20033;-62
2022/01/13 11:30:28;;;;;;;11.80;5.10;;;;;;;-10.79;72.72;98524.44;5037769;28;20311;-58
2022/01/13 11:32:55;;;;;;;13.38;5.95;;;;;;;-10.80;72.42;98506.84;5043884;28;20100;-58
2022/01/13 11:35:27;;;;;;;10.05;5.47;;;;;;;-10.68;73.57;98514.03;5054751;28;20253;-62
2022/01/13 11:37:56;;;;;;;11.57;5.80;;;;;;;-10.67;73.48;98478.22;5060721;28;20147;-58
2022/01/13 11:40:28;;;;;;;12.23;6.05;;;;;;;-10.64;72.50;98476.72;5045274;28;20045;-58
2022/01/13 11:42:58;;;;;;;11.85;6.28;;;;;;;-10.65;73.49;98486.66;5054539;28;20040;-58
2022/01/13 11:45:25;;;;;;;9.90;5.03;;;;;;;-10.76;74.00;98509.56;5045121;28;20101;-59